Time;durP1;ratioP1;P1;durP2;ratioP2;P2;SDS_P1;SDS_P2;PMS_P1;PMS_P2;Temp;Humidity;BMP_temperature;BMP_pressure;BME280_temperature;BME280_humidity;BME280_pressure;Samples;Min_cycle;Max_cycle;Signal;HPM_P1;HPM_P2
2023/09/22 00:08:54;;;;;;;8.18;4.30;;;;;;;18.05;66.98;98754.78;31221840;28;97929;-63
2023/09/22 00:23:54;;;;;;;6.45;3.85;;;;;;;17.90;67.33;98740.06;31218555;27;113782;-62
2023/09/22 00:38:54;;;;;;;10.13;4.35;;;;;;;17.70;67.56;98737.97;31217854;28;97366;-64
2023/09/22 00:53:55;;;;;;;8.93;4.63;;;;;;;17.49;68.13;98741.50;31216332;28;97094;-64
2023/09/22 01:08:56;;;;;;;8.93;4.80;;;;;;;17.37;68.57;98738.94;31215174;28;97437;-70
2023/09/22 01:23:57;;;;;;;9.70;5.65;;;;;;;17.23;68.96;98735.78;31214184;28;97374;-63
2023/09/22 01:38:59;;;;;;;7.43;5.10;;;;;;;17.03;69.47;98729.09;31210257;28;97236;-62
2023/09/22 01:53:59;;;;;;;8.67;4.97;;;;;;;16.86;69.88;98728.28;31211909;28;97186;-63
2023/09/22 02:08:59;;;;;;;11.27;5.15;;;;;;;16.73;70.50;98707.91;31191494;28;111718;-63
2023/09/22 02:24:00;;;;;;;7.38;4.57;;;;;;;16.68;71.05;98726.69;31207891;28;97463;-63
2023/09/22 02:39:00;;;;;;;12.68;5.80;;;;;;;16.61;71.34;98720.63;31210295;28;96747;-62
2023/09/22 02:54:01;;;;;;;8.60;4.78;;;;;;;16.55;71.68;98719.75;31227470;28;97257;-62
2023/09/22 03:09:06;;;;;;;9.13;4.95;;;;;;;16.47;71.89;98723.69;31224278;28;96738;-63
2023/09/22 03:24:06;;;;;;;9.17;4.93;;;;;;;16.33;72.28;98733.09;31222126;28;97116;-62
2023/09/22 03:39:08;;;;;;;11.75;5.40;;;;;;;16.28;73.22;98723.09;31222227;28;96900;-63
2023/09/22 03:54:08;;;;;;;13.47;6.10;;;;;;;16.20;72.86;98726.19;31219058;27;97121;-69
2023/09/22 04:09:08;;;;;;;11.93;5.80;;;;;;;16.11;73.28;98725.75;31219816;28;97113;-63
2023/09/22 04:24:11;;;;;;;7.20;5.47;;;;;;;16.08;73.43;98715.50;31215869;28;105855;-62
2023/09/22 04:39:11;;;;;;;10.50;5.90;;;;;;;16.17;73.58;98759.72;31210348;28;97475;-65
2023/09/22 04:54:12;;;;;;;9.60;5.55;;;;;;;16.18;73.15;98773.97;31211069;28;96730;-63
2023/09/22 05:09:12;;;;;;;10.43;5.40;;;;;;;16.49;73.79;98833.63;31210873;28;97209;-63
2023/09/22 05:24:12;;;;;;;12.63;6.00;;;;;;;17.02;73.26;98807.34;31212297;28;100510;-65
2023/09/22 05:39:14;;;;;;;9.32;5.32;;;;;;;17.31;72.30;98821.50;31209247;28;104995;-63
2023/09/22 05:54:15;;;;;;;12.17;6.07;;;;;;;17.53;71.90;98826.88;31207113;28;97267;-68
2023/09/22 06:09:15;;;;;;;9.20;3.35;;;;;;;17.95;71.54;98857.06;31202890;28;97432;-64
2023/09/22 06:24:17;;;;;;;12.27;5.03;;;;;;;18.39;70.64;98870.50;31222726;27;111381;-73
2023/09/22 06:39:18;;;;;;;;;;;;;;;19.10;69.54;98891.13;31224530;28;97482;-64
2023/09/22 06:54:19;;;;;;;7.03;3.55;;;;;;;19.47;69.08;98928.09;31225698;28;97078;-69
2023/09/22 07:09:19;;;;;;;;;;;;;;;20.29;67.73;98925.03;31224346;28;96761;-64
2023/09/22 07:24:19;;;;;;;7.95;3.40;;;;;;;21.72;65.81;98923.53;31223025;27;97202;-64
2023/09/22 07:39:21;;;;;;;4.40;2.53;;;;;;;22.95;62.71;98940.31;31219286;28;97358;-66
2023/09/22 07:54:22;;;;;;;5.43;2.43;;;;;;;23.43;60.20;98928.84;31215459;28;97512;-66
2023/09/22 08:09:23;;;;;;;9.33;3.17;;;;;;;24.99;57.06;98919.28;31215857;28;96712;-64
2023/09/22 08:24:23;;;;;;;8.30;2.85;;;;;;;26.81;52.05;98936.59;31213866;28;110941;-65
2023/09/22 08:39:23;;;;;;;9.35;2.17;;;;;;;27.72;47.98;98951.03;31214412;27;110889;-65
2023/09/22 08:54:24;;;;;;;4.65;1.70;;;;;;;27.80;44.58;98933.84;31213939;28;97196;-65
2023/09/22 09:09:24;;;;;;;6.28;1.98;;;;;;;26.04;45.85;98957.31;31210442;28;97121;-75
2023/09/22 09:24:25;;;;;;;3.75;1.70;;;;;;;24.30;47.61;99004.09;31210042;28;101090;-75
2023/09/22 09:39:58;;;;;;;3.45;1.80;;;;;;;23.38;49.85;98991.38;31206003;28;111266;-66
2023/09/22 09:55:08;;;;;;;6.50;1.53;;;;;;;23.83;49.15;99005.66;31205429;27;97457;-68
2023/09/22 10:10:09;;;;;;;5.23;1.60;;;;;;;24.35;49.00;98994.25;31205249;28;97439;-70
2023/09/22 10:25:13;;;;;;;10.70;1.30;;;;;;;25.43;46.66;98993.53;31206020;28;97187;-63
2023/09/22 10:40:18;;;;;;;3.17;1.13;;;;;;;25.60;46.11;98990.28;31203382;28;97138;-63
2023/09/22 10:55:26;;;;;;;2.33;1.30;;;;;;;25.41;46.27;99023.03;31202600;28;97327;-66
2023/09/22 11:10:26;;;;;;;8.17;1.70;;;;;;;24.67;46.68;99048.84;31219160;27;96753;-67
2023/09/22 11:25:26;;;;;;;5.72;2.40;;;;;;;24.62;46.94;99040.75;31220699;28;97110;-65
2023/09/22 11:40:37;;;;;;;6.22;2.90;;;;;;;24.31;47.75;99060.13;31220248;28;97105;-64
2023/09/22 11:55:38;;;;;;;7.40;2.30;;;;;;;24.46;48.55;99036.56;31217428;28;96774;-73
2023/09/22 12:10:38;;;;;;;6.47;2.50;;;;;;;24.68;48.24;99060.53;31216587;27;97216;-64
2023/09/22 12:25:38;;;;;;;6.93;2.22;;;;;;;24.57;48.62;99062.53;31212383;28;96671;-64
2023/09/22 12:40:39;;;;;;;4.65;2.30;;;;;;;23.86;49.96;99067.59;31213846;28;96744;-63
2023/09/22 12:55:40;;;;;;;7.47;2.10;;;;;;;23.13;50.73;99096.44;31212446;28;96786;-63
2023/09/22 13:10:43;;;;;;;;;;;;;;;22.85;51.91;99111.47;31211933;28;96865;-67
2023/09/22 13:25:46;;;;;;;5.13;1.93;;;;;;;22.42;52.97;99101.03;31212481;28;96779;-66
2023/09/22 13:40:46;;;;;;;5.53;1.97;;;;;;;21.89;54.04;99115.69;31209870;28;97342;-75
2023/09/22 13:55:47;;;;;;;6.22;2.38;;;;;;;21.56;54.71;99098.06;31208284;28;97313;-71
2023/09/22 14:10:47;;;;;;;4.70;2.00;;;;;;;21.22;55.44;99123.69;31206968;28;96828;-64
2023/09/22 14:25:48;;;;;;;5.23;1.63;;;;;;;20.81;56.63;99126.28;31204547;28;97911;-64
2023/09/22 14:40:48;;;;;;;7.07;1.30;;;;;;;20.25;57.67;99162.69;31217576;27;97062;-70
2023/09/22 14:55:49;;;;;;;1.88;1.00;;;;;;;19.46;59.77;99174.94;31225403;28;106270;-72
2023/09/22 15:10:51;;;;;;;2.50;1.20;;;;;;;19.01;61.07;99193.03;31225856;28;96704;-76
2023/09/22 15:25:52;;;;;;;3.80;1.07;;;;;;;18.55;61.55;99203.97;31222476;28;96677;-69
2023/09/22 15:41:00;;;;;;;3.40;1.00;;;;;;;18.19;62.65;99243.03;31219238;28;97425;-72
2023/09/22 15:56:01;;;;;;;1.33;0.63;;;;;;;17.68;63.81;99275.22;31215492;27;97633;-66
2023/09/22 16:11:01;;;;;;;2.45;0.88;;;;;;;17.12;65.18;99283.75;31219416;28;96744;-68
2023/09/22 16:26:10;;;;;;;1.67;0.60;;;;;;;16.70;66.57;99278.47;31215936;28;97322;-75
2023/09/22 16:41:10;;;;;;;1.03;0.60;;;;;;;16.55;66.68;99286.97;31212828;28;97201;-73
2023/09/22 16:56:12;;;;;;;2.10;0.88;;;;;;;16.38;67.95;99295.72;31211986;28;97231;-76
2023/09/22 17:11:12;;;;;;;1.43;0.87;;;;;;;16.42;68.12;99277.28;31212869;28;97258;-75
2023/09/22 17:26:13;;;;;;;1.40;0.82;;;;;;;16.35;68.65;99277.38;31212607;28;102585;-69
2023/09/22 17:41:14;;;;;;;2.00;1.20;;;;;;;16.35;68.91;99284.63;31208912;28;96801;-75
2023/09/22 17:56:15;;;;;;;;;;;;;;;16.41;68.97;99268.38;31210476;28;97344;-69
2023/09/22 18:11:16;;;;;;;4.03;2.47;;;;;;;16.33;69.43;99289.41;31208168;28;97303;-65
2023/09/22 18:26:16;;;;;;;3.67;1.02;;;;;;;16.25;69.58;99306.66;31205092;28;97177;-72
2023/09/22 18:41:17;;;;;;;3.40;1.60;;;;;;;16.30;70.08;99276.44;31203001;28;97429;-65
2023/09/22 18:56:18;;;;;;;4.33;3.13;;;;;;;16.17;70.12;99272.06;31202551;28;97274;-68
2023/09/22 19:11:19;;;;;;;3.72;2.00;;;;;;;16.20;70.49;99283.19;31201978;28;97528;-70
2023/09/22 19:26:19;;;;;;;3.97;1.80;;;;;;;16.11;70.79;99287.22;31213241;28;97115;-74
2023/09/22 19:41:20;;;;;;;5.22;3.58;;;;;;;16.08;71.03;99317.25;31223647;28;97179;-76
2023/09/22 19:56:24;;;;;;;5.45;2.97;;;;;;;16.11;71.45;99322.16;31219323;28;96604;-71
2023/09/22 20:11:25;;;;;;;4.77;2.40;;;;;;;16.11;71.30;99335.59;31217839;28;97261;-74
2023/09/22 20:26:27;;;;;;;7.33;5.90;;;;;;;16.01;72.14;99381.00;31217892;28;97378;-69
2023/09/22 20:41:27;;;;;;;4.53;2.37;;;;;;;15.85;72.41;99393.16;31214709;28;97033;-73
2023/09/22 20:56:28;;;;;;;4.13;2.25;;;;;;;15.86;73.46;99389.44;31216358;28;96794;-77
2023/09/22 21:11:28;;;;;;;7.13;4.05;;;;;;;15.87;73.66;99405.31;31215265;28;97448;-73
2023/09/22 21:26:28;;;;;;;6.38;3.03;;;;;;;15.82;74.49;99405.16;31214534;28;112092;-73
2023/09/22 21:41:29;;;;;;;5.68;3.92;;;;;;;15.69;74.74;99426.75;31211302;27;111899;-64
2023/09/22 21:56:30;;;;;;;3.43;2.60;;;;;;;15.31;74.86;99433.09;31209727;28;96783;-67
2023/09/22 22:11:30;;;;;;;4.47;2.75;;;;;;;14.83;75.38;99445.22;31210009;28;104416;-66
2023/09/22 22:26:34;;;;;;;4.60;2.22;;;;;;;14.61;76.02;99434.00;31208612;28;106873;-65
2023/09/22 22:41:35;;;;;;;3.73;2.20;;;;;;;14.24;76.66;99445.28;31208002;28;96711;-75
2023/09/22 22:56:35;;;;;;;5.05;2.22;;;;;;;14.13;76.88;99422.66;31212511;28;96786;-70
2023/09/22 23:11:36;;;;;;;2.95;1.65;;;;;;;14.02;77.11;99482.25;31227502;28;97219;-75
2023/09/22 23:26:36;;;;;;;5.07;2.15;;;;;;;13.91;77.38;99464.97;31226318;28;97183;-76
2023/09/22 23:41:38;;;;;;;2.80;1.50;;;;;;;13.88;78.15;99458.19;31223896;28;97129;-74
2023/09/22 23:56:39;;;;;;;3.40;1.40;;;;;;;13.87;77.86;99440.50;31222668;28;96787;-75
